createdAt,value
2022-09-04T00:02:28.025Z,72.76
2022-09-04T00:05:13.338Z,72.62
2022-09-04T00:07:51.888Z,73.12
2022-09-04T00:10:40.457Z,71.79
2022-09-04T00:13:11.538Z,72.85
2022-09-04T00:15:39.976Z,73.93
2022-09-04T00:18:08.308Z,73.54
2022-09-04T00:20:37.507Z,75.26
2022-09-04T00:23:25.340Z,76.07
2022-09-04T00:25:59.092Z,75.62
2022-09-04T00:28:25.549Z,71.95
2022-09-04T00:31:04.477Z,73.52
2022-09-04T00:33:43.150Z,74.16
2022-09-04T00:36:09.531Z,75.70
2022-09-04T00:38:46.140Z,76.15
2022-09-04T00:41:18.849Z,75.92
2022-09-04T00:44:04.076Z,76.29
2022-09-04T00:46:49.308Z,76.63
2022-09-04T00:49:31.028Z,77.45
2022-09-04T00:52:02.502Z,74.93
2022-09-04T00:54:41.188Z,76.23
2022-09-04T00:57:10.994Z,74.74
2022-09-04T00:59:56.304Z,74.67
2022-09-04T01:02:38.920Z,75.68
2022-09-04T01:05:19.593Z,76.16
2022-09-04T01:07:58.626Z,76.34
2022-09-04T01:10:28.007Z,76.71
2022-09-04T01:13:00.270Z,77.32
2022-09-04T01:15:29.837Z,77.85
2022-09-04T01:18:04.378Z,77.51
2022-09-04T01:21:00.048Z,77.56
2022-09-04T01:23:49.747Z,76.16
2022-09-04T01:26:27.975Z,75.23
2022-09-04T01:29:20.737Z,76.57
2022-09-04T01:32:05.278Z,77.18
2022-09-04T01:34:38.336Z,78.80
2022-09-04T01:37:12.967Z,77.97
2022-09-04T01:39:39.377Z,77.89
2022-09-04T01:42:11.931Z,77.72
2022-09-04T01:44:38.288Z,78.13
2022-09-04T01:47:19.227Z,78.67
2022-09-04T01:49:47.978Z,78.65
2022-09-04T01:52:18.613Z,79.11
2022-09-04T01:54:44.924Z,79.59
2022-09-04T01:57:14.290Z,79.08
2022-09-04T01:59:40.617Z,77.74
2022-09-04T02:02:13.412Z,79.28
2022-09-04T02:04:45.640Z,80.04
2022-09-04T02:07:25.563Z,79.34
2022-09-04T02:10:07.239Z,80.12
2022-09-04T02:12:52.363Z,80.94
2022-09-04T02:15:18.682Z,81.00
2022-09-04T02:17:51.093Z,79.58
2022-09-04T02:20:23.685Z,78.99
2022-09-04T02:23:04.976Z,76.43
2022-09-04T02:25:43.444Z,74.84
2022-09-04T02:28:09.741Z,72.39
2022-09-04T02:30:44.304Z,73.53
2022-09-04T02:33:15.173Z,73.76
2022-09-04T02:35:56.692Z,75.49
2022-09-04T02:38:26.093Z,76.61
2022-09-04T02:40:59.035Z,77.07
2022-09-04T02:43:35.586Z,78.39
2022-09-04T02:46:07.617Z,76.51
2022-09-04T02:48:52.794Z,75.63
2022-09-04T02:51:24.988Z,77.07
2022-09-04T02:53:54.927Z,77.91
2022-09-04T02:56:26.434Z,77.98
2022-09-04T02:59:11.904Z,77.78
2022-09-04T03:01:52.554Z,79.03
2022-09-04T03:04:24.530Z,76.55
2022-09-04T03:06:52.047Z,77.05
2022-09-04T03:09:30.927Z,78.12
2022-09-04T03:12:00.986Z,78.14
2022-09-04T03:14:34.357Z,78.63
2022-09-04T03:17:06.870Z,77.94
2022-09-04T03:19:42.402Z,77.79
2022-09-04T03:22:23.137Z,77.38
2022-09-04T03:25:08.359Z,77.28
2022-09-04T03:27:34.730Z,76.39
2022-09-04T03:30:01.374Z,76.28
2022-09-04T03:32:43.061Z,76.21
2022-09-04T03:35:10.631Z,77.25
2022-09-04T03:37:37.118Z,77.53
2022-09-04T03:40:18.577Z,78.42
2022-09-04T03:42:50.387Z,78.24
2022-09-04T03:45:25.908Z,78.70
2022-09-04T03:48:12.588Z,78.07
2022-09-04T03:50:57.035Z,78.05
2022-09-04T03:53:29.355Z,78.92
2022-09-04T03:56:06.121Z,78.29
2022-09-04T03:58:36.969Z,76.89
2022-09-04T04:01:06.905Z,77.19
2022-09-04T04:03:52.195Z,77.17
2022-09-04T04:06:23.272Z,78.16
2022-09-04T04:08:56.609Z,80.16
2022-09-04T04:11:24.162Z,80.68
2022-09-04T04:13:50.492Z,80.74
2022-09-04T04:16:26.183Z,82.36
2022-09-04T04:19:30.962Z,82.87
2022-09-04T04:22:15.145Z,84.89
2022-09-04T04:24:54.729Z,83.79
2022-09-04T04:27:40.094Z,83.89
2022-09-04T04:30:07.451Z,84.03
2022-09-04T04:32:44.421Z,83.91
2022-09-04T04:35:17.080Z,81.90
2022-09-04T04:38:02.139Z,82.60
2022-09-04T04:40:37.569Z,80.34
2022-09-04T04:43:13.970Z,81.22
2022-09-04T04:45:59.103Z,81.95
2022-09-04T04:48:25.537Z,81.70
2022-09-04T04:50:59.185Z,82.29
2022-09-04T04:53:35.489Z,82.40
2022-09-04T04:56:20.756Z,82.64
2022-09-04T04:58:50.966Z,82.71
2022-09-04T05:01:25.508Z,81.31
2022-09-04T05:03:54.999Z,81.76
2022-09-04T05:06:25.777Z,81.38
2022-09-04T05:09:03.021Z,81.52
2022-09-04T05:11:32.402Z,81.56
2022-09-04T05:13:58.706Z,82.30
2022-09-04T05:16:31.163Z,82.53
2022-09-04T05:18:59.546Z,81.42
2022-09-04T05:21:31.092Z,80.63
2022-09-04T05:24:10.979Z,79.33
2022-09-04T05:26:52.738Z,77.87
2022-09-04T05:29:32.400Z,76.50
2022-09-04T05:32:19.310Z,75.93
2022-09-04T05:34:49.052Z,74.91
2022-09-04T05:37:20.831Z,74.77
2022-09-04T05:39:59.551Z,74.74
2022-09-04T05:42:32.084Z,73.35
2022-09-04T05:45:05.685Z,72.80
2022-09-04T05:47:34.868Z,72.98
2022-09-04T05:50:08.287Z,72.64
2022-09-04T05:52:46.764Z,72.26
2022-09-04T05:55:22.266Z,72.09
2022-09-04T05:57:48.554Z,70.00
2022-09-04T06:00:16.199Z,70.58
2022-09-04T06:02:48.791Z,69.90
2022-09-04T06:05:21.209Z,69.75
2022-09-04T06:07:47.495Z,69.74
2022-09-04T06:10:20.733Z,69.75
2022-09-04T06:13:01.089Z,68.48
2022-09-04T06:15:31.276Z,66.84
2022-09-04T06:18:10.038Z,66.88
2022-09-04T06:20:45.908Z,67.23
2022-09-04T06:23:20.765Z,67.38
2022-09-04T06:26:06.309Z,67.44
2022-09-04T06:28:35.455Z,67.63
2022-09-04T06:31:11.130Z,67.69
2022-09-04T06:33:56.414Z,66.87
2022-09-04T06:36:38.820Z,66.12
2022-09-04T06:39:11.451Z,65.75
2022-09-04T06:41:43.777Z,65.79
2022-09-04T06:44:19.248Z,65.91
2022-09-04T06:46:45.621Z,66.54
2022-09-04T06:49:15.013Z,65.27
2022-09-04T06:51:53.497Z,65.04
2022-09-04T06:54:43.142Z,64.93
2022-09-04T06:57:19.893Z,65.59
2022-09-04T06:59:55.286Z,64.57
2022-09-04T07:02:28.798Z,65.10
2022-09-04T07:05:15.532Z,65.43
2022-09-04T07:07:48.059Z,63.92
2022-09-04T07:10:21.677Z,64.02
2022-09-04T07:13:14.372Z,63.55
2022-09-04T07:15:46.457Z,63.72
2022-09-04T07:18:12.909Z,63.15
2022-09-04T07:21:05.778Z,62.74
2022-09-04T07:23:52.402Z,62.54
2022-09-04T07:26:21.804Z,63.28
2022-09-04T07:28:51.205Z,61.68
2022-09-04T07:31:53.559Z,61.94
2022-09-04T07:34:25.157Z,61.46
2022-09-04T07:37:04.237Z,60.58
2022-09-04T07:39:44.351Z,60.93
2022-09-04T07:42:16.900Z,62.40
2022-09-04T07:44:54.447Z,61.50
2022-09-04T07:47:31.263Z,60.54
2022-09-04T07:50:03.852Z,59.90
2022-09-04T07:52:30.730Z,60.67
2022-09-04T07:55:07.437Z,59.90
2022-09-04T07:57:52.721Z,61.08
2022-09-04T08:00:21.043Z,61.69
2022-09-04T08:03:08.064Z,61.07
2022-09-04T08:05:36.872Z,60.54
2022-09-04T08:08:15.629Z,58.17
2022-09-04T08:10:51.179Z,58.05
2022-09-04T08:13:56.410Z,59.41
2022-09-04T08:16:23.010Z,58.18
2022-09-04T08:19:08.548Z,57.49
2022-09-04T08:21:39.283Z,60.29
2022-09-04T08:24:15.982Z,60.00
2022-09-04T08:26:54.501Z,57.45
2022-09-04T08:29:23.910Z,56.78
2022-09-04T08:31:59.087Z,59.03
2022-09-04T08:34:40.687Z,56.91
2022-09-04T08:37:26.354Z,58.35
2022-09-04T08:39:58.633Z,57.16
2022-09-04T08:42:31.875Z,57.78
2022-09-04T08:45:04.521Z,58.96
2022-09-04T08:47:51.760Z,56.64
2022-09-04T08:50:19.292Z,57.39
2022-09-04T08:52:45.583Z,58.08
2022-09-04T08:55:43.144Z,57.40
2022-09-04T08:58:09.603Z,56.12
2022-09-04T09:00:55.643Z,55.82
2022-09-04T09:03:31.211Z,55.80
2022-09-04T09:05:57.605Z,56.10
2022-09-04T09:08:33.189Z,55.49
2022-09-04T09:11:16.100Z,55.08
2022-09-04T09:13:46.572Z,56.10
2022-09-04T09:16:28.256Z,55.65
2022-09-04T09:19:13.458Z,55.51
2022-09-04T09:21:59.049Z,56.80
2022-09-04T09:24:34.753Z,56.48
2022-09-04T09:27:20.317Z,57.33
2022-09-04T09:30:07.353Z,56.85
2022-09-04T09:32:52.173Z,55.38
2022-09-04T09:35:33.847Z,56.07
2022-09-04T09:38:04.662Z,54.78
2022-09-04T09:40:51.419Z,55.48
2022-09-04T09:43:46.901Z,55.59
2022-09-04T09:46:19.295Z,54.91
2022-09-04T09:49:04.632Z,54.17
2022-09-04T09:51:59.866Z,55.08
2022-09-04T09:54:37.929Z,55.63
2022-09-04T09:57:33.393Z,56.47
2022-09-04T10:00:09.606Z,55.77
2022-09-04T10:02:54.841Z,54.94
2022-09-04T10:05:40.582Z,54.55
2022-09-04T10:08:07.032Z,55.25
2022-09-04T10:10:55.584Z,55.97
2022-09-04T10:13:25.053Z,55.02
2022-09-04T10:15:54.229Z,55.07
2022-09-04T10:18:20.575Z,54.59
2022-09-04T10:20:55.443Z,54.61
2022-09-04T10:23:25.718Z,54.72
2022-09-04T10:26:10.696Z,55.89
2022-09-04T10:28:59.537Z,54.84
2022-09-04T10:31:44.802Z,53.51
2022-09-04T10:34:29.966Z,54.47
2022-09-04T10:37:04.129Z,53.60
2022-09-04T10:39:54.235Z,53.17
2022-09-04T10:42:26.578Z,53.68
2022-09-04T10:45:11.719Z,52.03
2022-09-04T10:47:47.415Z,51.03
2022-09-04T10:50:20.557Z,53.01
2022-09-04T10:52:48.501Z,52.15
2022-09-04T10:55:14.845Z,51.93
2022-09-04T10:57:41.184Z,53.29
2022-09-04T11:00:07.921Z,52.99
2022-09-04T11:02:53.291Z,51.90
2022-09-04T11:05:32.222Z,51.55
2022-09-04T11:08:12.930Z,50.83
2022-09-04T11:10:40.301Z,50.92
2022-09-04T11:13:25.997Z,51.28
2022-09-04T11:15:56.011Z,49.48
2022-09-04T11:18:28.445Z,51.51
2022-09-04T11:21:19.167Z,50.71
2022-09-04T11:24:07.802Z,50.10
2022-09-04T11:26:47.340Z,50.34
2022-09-04T11:29:32.017Z,50.07
2022-09-04T11:32:12.086Z,51.54
2022-09-04T11:34:57.391Z,49.99
2022-09-04T11:37:43.429Z,49.16
2022-09-04T11:40:09.829Z,50.87
2022-09-04T11:43:02.657Z,53.41
2022-09-04T11:45:35.049Z,53.67
2022-09-04T11:48:09.590Z,50.69
2022-09-04T11:51:01.485Z,49.55
2022-09-04T11:53:46.738Z,48.20
2022-09-04T11:56:16.069Z,47.58
2022-09-04T11:59:01.362Z,48.28
2022-09-04T12:01:27.699Z,46.91
2022-09-04T12:04:14.643Z,47.53
2022-09-04T12:07:00.086Z,46.79
2022-09-04T12:09:36.066Z,49.04
2022-09-04T12:12:22.513Z,48.97
2022-09-04T12:15:07.501Z,48.05
2022-09-04T12:17:44.504Z,48.48
2022-09-04T12:20:29.784Z,47.28
2022-09-04T12:22:56.154Z,46.54
2022-09-04T12:25:49.675Z,44.06
2022-09-04T12:28:54.417Z,43.99
2022-09-04T12:31:20.821Z,45.93
2022-09-04T12:33:56.815Z,46.98
2022-09-04T12:36:42.226Z,45.26
2022-09-04T12:39:34.337Z,45.90
2022-09-04T12:42:19.487Z,46.64
2022-09-04T12:44:52.064Z,47.31
2022-09-04T12:47:21.789Z,48.36
2022-09-04T12:50:06.980Z,47.75
2022-09-04T12:52:36.500Z,48.82
2022-09-04T12:55:41.657Z,47.88
2022-09-04T12:58:21.257Z,48.21
2022-09-04T13:00:56.856Z,47.63
2022-09-04T13:03:28.051Z,45.32
2022-09-04T13:06:04.295Z,46.43
2022-09-04T13:08:47.053Z,48.11
2022-09-04T13:11:22.697Z,46.80
2022-09-04T13:13:56.649Z,44.89
2022-09-04T13:16:32.450Z,43.33
2022-09-04T13:19:09.710Z,43.34
2022-09-04T13:21:44.392Z,43.18
2022-09-04T13:24:19.713Z,45.26
2022-09-04T13:27:00.697Z,43.98
2022-09-04T13:29:28.115Z,45.65
2022-09-04T13:31:54.540Z,46.01
2022-09-04T13:34:20.864Z,45.65
2022-09-04T13:36:57.252Z,45.66
2022-09-04T13:39:39.093Z,44.86
2022-09-04T13:42:11.503Z,43.68
2022-09-04T13:44:58.168Z,43.73
2022-09-04T13:47:32.724Z,43.19
2022-09-04T13:50:08.364Z,44.71
2022-09-04T13:52:45.677Z,42.96
2022-09-04T13:55:17.962Z,44.60
2022-09-04T13:57:57.325Z,43.32
2022-09-04T14:00:24.514Z,42.48
2022-09-04T14:02:58.699Z,44.51
2022-09-04T14:05:25.656Z,43.80
2022-09-04T14:07:57.527Z,43.33
2022-09-04T14:10:27.454Z,42.88
2022-09-04T14:13:04.396Z,43.21
2022-09-04T14:15:33.742Z,44.50
2022-09-04T14:18:08.181Z,42.27
2022-09-04T14:21:02.462Z,43.26
2022-09-04T14:23:29.802Z,46.09
2022-09-04T14:25:57.210Z,45.55
2022-09-04T14:28:35.374Z,45.92
2022-09-04T14:31:11.132Z,45.25
2022-09-04T14:33:49.988Z,46.68
2022-09-04T14:36:21.657Z,45.07
2022-09-04T14:38:54.417Z,45.92
2022-09-04T14:41:20.967Z,45.36
2022-09-04T14:44:01.295Z,45.53
2022-09-04T14:46:39.303Z,46.68
2022-09-04T14:49:06.499Z,45.30
2022-09-04T14:51:35.088Z,45.59
2022-09-04T14:54:01.946Z,45.37
2022-09-04T14:56:31.443Z,44.92
2022-09-04T14:59:02.500Z,45.23
2022-09-04T15:01:29.881Z,45.86
2022-09-04T15:04:17.492Z,46.56
2022-09-04T15:07:07.775Z,46.47
2022-09-04T15:09:36.138Z,45.93
2022-09-04T15:12:25.945Z,46.55
2022-09-04T15:14:54.520Z,46.57
2022-09-04T15:17:26.292Z,46.61
2022-09-04T15:19:55.037Z,47.01
2022-09-04T15:22:26.342Z,46.67
2022-09-04T15:24:58.434Z,47.94
2022-09-04T15:27:32.874Z,47.80
2022-09-04T15:30:03.440Z,47.57
2022-09-04T15:32:36.827Z,48.34
2022-09-04T15:35:23.231Z,47.79
2022-09-04T15:37:50.415Z,48.39
2022-09-04T15:40:31.981Z,48.39
2022-09-04T15:43:03.865Z,49.26
2022-09-04T15:45:36.376Z,49.21
2022-09-04T15:48:06.107Z,49.41
2022-09-04T15:50:36.654Z,50.00
2022-09-04T15:53:20.678Z,49.56
2022-09-04T15:55:54.385Z,49.74
2022-09-04T15:58:21.099Z,50.78
2022-09-04T16:01:16.845Z,49.71
2022-09-04T16:04:04.907Z,50.22
2022-09-04T16:06:54.732Z,52.20
2022-09-04T16:09:30.066Z,51.02
2022-09-04T16:11:59.889Z,52.09
2022-09-04T16:14:30.096Z,51.32
2022-09-04T16:17:07.113Z,51.75
2022-09-04T16:19:42.441Z,51.80
2022-09-04T16:22:18.520Z,52.62
2022-09-04T16:24:47.023Z,53.32
2022-09-04T16:27:15.360Z,53.99
2022-09-04T16:29:53.514Z,54.14
2022-09-04T16:32:22.360Z,55.02
2022-09-04T16:34:56.794Z,54.48
2022-09-04T16:37:28.523Z,54.59
2022-09-04T16:40:01.014Z,54.13
2022-09-04T16:42:43.919Z,54.02
2022-09-04T16:45:17.056Z,54.40
2022-09-04T16:47:44.128Z,53.80
2022-09-04T16:50:28.987Z,54.70
2022-09-04T16:52:58.860Z,54.37
2022-09-04T16:55:52.369Z,54.40
2022-09-04T16:58:20.158Z,54.66
2022-09-04T17:01:14.339Z,55.25
2022-09-04T17:03:43.276Z,57.05
2022-09-04T17:06:28.622Z,58.77
2022-09-04T17:09:08.539Z,59.36
2022-09-04T17:11:45.430Z,60.32
2022-09-04T17:14:22.724Z,60.84
2022-09-04T17:16:57.220Z,61.45
2022-09-04T17:19:23.675Z,60.57
2022-09-04T17:28:58.137Z,60.59
2022-09-04T17:29:07.873Z,60.84
2022-09-04T17:29:11.313Z,60.91
2022-09-04T17:30:50.370Z,61.13
2022-09-04T17:35:40.270Z,60.72
2022-09-04T17:40:36.550Z,60.89
2022-09-04T17:40:49.875Z,61.37
2022-09-04T17:42:09.515Z,61.80
2022-09-04T17:44:46.025Z,63.13
2022-09-04T17:47:15.356Z,62.67
2022-09-04T17:49:44.023Z,62.59
2022-09-04T17:52:11.812Z,62.47
2022-09-04T17:54:40.363Z,62.21
2022-09-04T17:57:18.925Z,62.63
2022-09-04T17:59:49.164Z,62.85
2022-09-04T18:02:22.841Z,61.98
2022-09-04T18:05:13.530Z,61.52
2022-09-04T18:08:08.037Z,62.68
2022-09-04T18:10:36.988Z,62.83
2022-09-04T18:13:30.395Z,62.10
2022-09-04T18:16:19.598Z,61.77
2022-09-04T18:18:52.901Z,61.59
2022-09-04T18:21:24.132Z,63.25
2022-09-04T18:23:52.686Z,62.43
2022-09-04T18:26:40.578Z,63.18
2022-09-04T18:30:55.389Z,63.71
2022-09-04T18:37:10.498Z,64.49
2022-09-04T18:37:19.201Z,65.66
2022-09-04T18:38:03.463Z,64.97
2022-09-04T18:42:10.648Z,64.41
2022-09-04T18:50:22.580Z,65.51
2022-09-04T18:50:32.229Z,66.22
2022-09-04T18:50:50.778Z,65.87
2022-09-04T18:51:59.605Z,63.90
2022-09-04T18:54:31.142Z,63.50
2022-09-04T18:57:00.790Z,63.79
2022-09-04T18:59:36.290Z,63.90
2022-09-04T19:02:04.694Z,63.39
2022-09-04T19:04:35.715Z,62.72
2022-09-04T19:07:07.044Z,63.19
2022-09-04T19:09:55.743Z,63.68
2022-09-04T19:12:23.574Z,63.30
2022-09-04T19:14:49.958Z,64.76
2022-09-04T19:17:21.058Z,64.49
2022-09-04T19:19:49.861Z,65.29
2022-09-04T19:22:17.965Z,65.74
2022-09-04T19:24:49.075Z,65.39
2022-09-04T19:27:25.100Z,66.13
2022-09-04T19:30:18.942Z,66.58
2022-09-04T19:32:59.641Z,67.00
2022-09-04T19:35:30.034Z,67.76
2022-09-04T19:41:46.093Z,67.66
2022-09-04T19:45:57.876Z,69.39
2022-09-04T19:46:14.823Z,69.26
2022-09-04T19:46:47.208Z,69.16
2022-09-04T19:51:30.892Z,69.03
2022-09-04T19:53:31.573Z,69.58
2022-09-04T19:55:24.384Z,70.58
2022-09-04T19:57:52.229Z,70.60
2022-09-04T20:00:42.111Z,70.11
2022-09-04T20:03:05.499Z,70.68
2022-09-04T20:05:32.874Z,70.37
2022-09-04T20:08:02.435Z,71.66
2022-09-04T20:10:32.885Z,71.52
2022-09-04T20:13:02.083Z,71.05
2022-09-04T20:15:32.012Z,71.40
2022-09-04T20:18:04.144Z,72.73
2022-09-04T20:20:46.114Z,71.89
2022-09-04T20:23:35.793Z,72.38
2022-09-04T20:26:02.130Z,72.60
2022-09-04T20:28:48.434Z,73.01
2022-09-04T20:31:35.881Z,73.29
2022-09-04T20:34:09.949Z,74.27
2022-09-04T20:36:37.428Z,74.41
2022-09-04T20:39:33.468Z,75.15
2022-09-04T20:42:10.045Z,75.64
2022-09-04T20:44:36.704Z,75.80
2022-09-04T20:52:40.454Z,75.26
2022-09-04T20:52:59.378Z,76.56
2022-09-04T20:53:34.875Z,76.16
2022-09-04T20:56:36.110Z,75.60
2022-09-04T21:03:05.579Z,75.36
2022-09-04T21:03:23.713Z,74.39
2022-09-04T21:04:48.609Z,75.33
2022-09-04T21:07:27.134Z,75.26
2022-09-04T21:09:55.477Z,75.33
2022-09-04T21:12:27.850Z,75.99
2022-09-04T21:14:55.146Z,76.65
2022-09-04T21:17:34.643Z,77.42
2022-09-04T21:20:16.666Z,76.46
2022-09-04T21:22:48.529Z,77.80
2022-09-04T21:25:21.176Z,76.79
2022-09-04T21:27:57.961Z,77.15
2022-09-04T21:30:37.481Z,77.40
2022-09-04T21:33:28.887Z,76.45
2022-09-04T21:36:11.725Z,77.23
2022-09-04T21:38:54.069Z,77.38
2022-09-04T21:41:26.971Z,77.08
2022-09-04T21:43:53.261Z,77.89
2022-09-04T21:46:36.053Z,78.36
2022-09-04T21:49:26.492Z,78.15
2022-09-04T21:52:02.598Z,78.79
2022-09-04T21:54:37.841Z,78.85
2022-09-04T22:02:29.225Z,77.84
2022-09-04T22:02:41.326Z,77.84
2022-09-04T22:03:02.463Z,77.01
2022-09-04T22:05:35.859Z,77.63
2022-09-04T22:13:31.082Z,77.00
2022-09-04T22:13:38.066Z,78.12
2022-09-04T22:14:17.303Z,77.57
2022-09-04T22:16:52.773Z,76.85
2022-09-04T22:19:26.674Z,77.69
2022-09-04T22:22:03.686Z,77.49
2022-09-04T22:24:33.379Z,78.07
2022-09-04T22:27:08.811Z,78.85
2022-09-04T22:29:40.517Z,78.91
2022-09-04T22:32:10.105Z,78.63
2022-09-04T22:34:52.512Z,78.14
2022-09-04T22:37:37.657Z,77.84
2022-09-04T22:40:27.439Z,77.48
2022-09-04T22:43:02.923Z,77.28
2022-09-04T22:45:32.320Z,77.14
2022-09-04T22:48:10.750Z,76.99
2022-09-04T22:50:50.354Z,77.09
2022-09-04T22:53:27.820Z,77.31
2022-09-04T22:56:23.397Z,77.01
2022-09-04T22:59:20.380Z,76.85
2022-09-04T23:02:14.179Z,76.44
2022-09-04T23:04:59.111Z,76.79
2022-09-04T23:09:03.111Z,76.69
2022-09-04T23:13:49.990Z,76.62
2022-09-04T23:13:52.086Z,76.94
2022-09-04T23:16:12.650Z,77.06
2022-09-04T23:22:09.964Z,77.72
2022-09-04T23:26:33.321Z,78.30
2022-09-04T23:26:43.386Z,79.47
2022-09-04T23:27:43.734Z,78.90
2022-09-04T23:30:13.472Z,79.30
2022-09-04T23:32:58.776Z,79.94
2022-09-04T23:35:42.055Z,78.77
2022-09-04T23:38:26.596Z,77.99
2022-09-04T23:41:13.880Z,78.57
2022-09-04T23:43:49.702Z,78.99
2022-09-04T23:46:17.937Z,78.90
2022-09-04T23:48:44.283Z,78.99
2022-09-04T23:51:13.719Z,79.36
2022-09-04T23:53:43.146Z,79.38
2022-09-04T23:56:09.449Z,78.95
2022-09-04T23:58:54.513Z,78.32
